sensor_id;sensor_type;location;lat;lon;timestamp;temperature;humidity
6956;DHT22;50345;51.136;16.886;2022-09-13T07:48:31;16.90;99.90
6956;DHT22;50345;51.136;16.886;2022-09-13T07:51:02;16.90;99.90
6956;DHT22;50345;51.136;16.886;2022-09-13T07:53:29;16.90;99.90
6956;DHT22;50345;51.136;16.886;2022-09-13T07:55:59;17.00;99.90
6956;DHT22;50345;51.136;16.886;2022-09-13T07:58:26;17.00;99.90
6956;DHT22;50345;51.136;16.886;2022-09-13T08:00:51;17.10;99.90
6956;DHT22;50345;51.136;16.886;2022-09-13T08:03:17;17.30;99.90
6956;DHT22;50345;51.136;16.886;2022-09-13T08:05:42;17.50;99.90
6956;DHT22;50345;51.136;16.886;2022-09-13T08:08:08;17.50;99.90
6956;DHT22;50345;51.136;16.886;2022-09-13T08:10:33;17.60;99.90
6956;DHT22;50345;51.136;16.886;2022-09-13T08:12:59;17.70;99.90
6956;DHT22;50345;51.136;16.886;2022-09-13T08:15:25;17.80;99.90
6956;DHT22;50345;51.136;16.886;2022-09-13T08:17:51;17.90;99.90
6956;DHT22;50345;51.136;16.886;2022-09-13T08:20:19;18.10;99.90
6956;DHT22;50345;51.136;16.886;2022-09-13T08:22:44;18.30;99.90
6956;DHT22;50345;51.136;16.886;2022-09-13T08:25:10;18.40;99.90
6956;DHT22;50345;51.136;16.886;2022-09-13T08:27:35;18.60;99.90
6956;DHT22;50345;51.136;16.886;2022-09-13T08:30:01;18.80;99.90
6956;DHT22;50345;51.136;16.886;2022-09-13T08:32:27;19.00;99.90
6956;DHT22;50345;51.136;16.886;2022-09-13T08:34:52;19.10;99.90
6956;DHT22;50345;51.136;16.886;2022-09-13T08:37:18;19.30;99.90
6956;DHT22;50345;51.136;16.886;2022-09-13T08:39:43;19.50;99.90
6956;DHT22;50345;51.136;16.886;2022-09-13T08:44:53;19.90;99.90
6956;DHT22;50345;51.136;16.886;2022-09-13T08:47:40;20.10;99.90
6956;DHT22;50345;51.136;16.886;2022-09-13T08:50:20;20.20;99.90
6956;DHT22;50345;51.136;16.886;2022-09-13T08:52:57;20.40;99.90
6956;DHT22;50345;51.136;16.886;2022-09-13T08:55:39;20.50;99.90
6956;DHT22;50345;51.136;16.886;2022-09-13T09:00:55;21.10;99.90
6956;DHT22;50345;51.136;16.886;2022-09-13T09:03:29;21.60;99.90
6956;DHT22;50345;51.136;16.886;2022-09-13T09:05:56;21.90;99.90
6956;DHT22;50345;51.136;16.886;2022-09-13T09:08:31;22.20;99.90
6956;DHT22;50345;51.136;16.886;2022-09-13T09:11:09;22.70;99.90
6956;DHT22;50345;51.136;16.886;2022-09-13T09:14:03;23.30;99.90
6956;DHT22;50345;51.136;16.886;2022-09-13T09:16:38;23.60;99.90
6956;DHT22;50345;51.136;16.886;2022-09-13T09:19:12;23.90;99.90
6956;DHT22;50345;51.136;16.886;2022-09-13T09:21:40;24.00;99.90
6956;DHT22;50345;51.136;16.886;2022-09-13T09:24:14;23.90;99.90
6956;DHT22;50345;51.136;16.886;2022-09-13T09:26:41;23.80;99.90
6956;DHT22;50345;51.136;16.886;2022-09-13T09:37:19;23.10;99.90
6956;DHT22;50345;51.136;16.886;2022-09-13T09:39:46;22.90;99.90
6956;DHT22;50345;51.136;16.886;2022-09-13T09:42:23;22.80;99.90
6956;DHT22;50345;51.136;16.886;2022-09-13T09:44:52;22.80;99.90
6956;DHT22;50345;51.136;16.886;2022-09-13T09:47:24;22.60;99.90
6956;DHT22;50345;51.136;16.886;2022-09-13T09:50:12;22.50;99.90
6956;DHT22;50345;51.136;16.886;2022-09-13T09:52:52;22.40;99.90
6956;DHT22;50345;51.136;16.886;2022-09-13T09:55:39;22.30;99.90
6956;DHT22;50345;51.136;16.886;2022-09-13T09:58:08;22.20;99.90
6956;DHT22;50345;51.136;16.886;2022-09-13T10:00:39;22.00;99.90
6956;DHT22;50345;51.136;16.886;2022-09-13T10:03:19;21.80;99.90
6956;DHT22;50345;51.136;16.886;2022-09-13T10:05:46;21.60;99.90
6956;DHT22;50345;51.136;16.886;2022-09-13T10:08:33;21.40;99.90
6956;DHT22;50345;51.136;16.886;2022-09-13T10:10:59;21.20;99.90
6956;DHT22;50345;51.136;16.886;2022-09-13T10:13:27;21.10;99.90
6956;DHT22;50345;51.136;16.886;2022-09-13T10:15:57;21.00;99.90
6956;DHT22;50345;51.136;16.886;2022-09-13T10:18:26;20.80;99.90
6956;DHT22;50345;51.136;16.886;2022-09-13T10:21:03;20.70;99.90
6956;DHT22;50345;51.136;16.886;2022-09-13T10:23:34;20.60;99.90
6956;DHT22;50345;51.136;16.886;2022-09-13T10:26:16;20.50;99.90
6956;DHT22;50345;51.136;16.886;2022-09-13T10:31:15;20.60;99.90
6956;DHT22;50345;51.136;16.886;2022-09-13T10:34:01;20.80;99.90
6956;DHT22;50345;51.136;16.886;2022-09-13T10:36:34;21.00;99.90
6956;DHT22;50345;51.136;16.886;2022-09-13T10:39:21;21.30;99.90
6956;DHT22;50345;51.136;16.886;2022-09-13T10:41:50;21.70;99.90
6956;DHT22;50345;51.136;16.886;2022-09-13T10:44:44;22.00;99.90
6956;DHT22;50345;51.136;16.886;2022-09-13T10:47:43;22.30;99.90
6956;DHT22;50345;51.136;16.886;2022-09-13T10:52:51;22.50;99.90
6956;DHT22;50345;51.136;16.886;2022-09-13T10:57:52;22.20;99.90
6956;DHT22;50345;51.136;16.886;2022-09-13T11:00:23;22.20;99.90
6956;DHT22;50345;51.136;16.886;2022-09-13T11:11:39;22.40;99.90
6956;DHT22;50345;51.136;16.886;2022-09-13T11:20:11;22.20;99.90
6956;DHT22;50345;51.136;16.886;2022-09-13T11:23:03;22.20;99.90
6956;DHT22;50345;51.136;16.886;2022-09-13T11:25:46;22.20;99.90
6956;DHT22;50345;51.136;16.886;2022-09-13T11:32:00;22.20;99.90
6956;DHT22;50345;51.136;16.886;2022-09-13T11:34:48;22.10;99.90
6956;DHT22;50345;51.136;16.886;2022-09-13T11:43:32;22.40;99.90
6956;DHT22;50345;51.136;16.886;2022-09-13T11:54:25;22.10;99.90
6956;DHT22;50345;51.136;16.886;2022-09-13T11:56:58;21.90;99.90
6956;DHT22;50345;51.136;16.886;2022-09-13T11:59:58;21.90;99.90
6956;DHT22;50345;51.136;16.886;2022-09-13T12:02:41;21.90;99.90
6956;DHT22;50345;51.136;16.886;2022-09-13T12:05:20;22.00;99.90
6956;DHT22;50345;51.136;16.886;2022-09-13T12:07:54;22.10;99.90
6956;DHT22;50345;51.136;16.886;2022-09-13T12:13:14;22.30;99.90
6956;DHT22;50345;51.136;16.886;2022-09-13T12:15:42;22.40;99.90
6956;DHT22;50345;51.136;16.886;2022-09-13T12:18:45;22.50;99.90
6956;DHT22;50345;51.136;16.886;2022-09-13T12:21:19;22.40;99.90
6956;DHT22;50345;51.136;16.886;2022-09-13T12:26:53;22.20;99.90
6956;DHT22;50345;51.136;16.886;2022-09-13T12:29:27;22.10;99.90
6956;DHT22;50345;51.136;16.886;2022-09-13T12:32:01;21.90;99.90
6956;DHT22;50345;51.136;16.886;2022-09-13T12:35:04;21.80;99.90
6956;DHT22;50345;51.136;16.886;2022-09-13T12:40:26;21.80;99.90
6956;DHT22;50345;51.136;16.886;2022-09-13T12:46:02;21.90;99.90
6956;DHT22;50345;51.136;16.886;2022-09-13T12:57:48;22.60;99.90
6956;DHT22;50345;51.136;16.886;2022-09-13T13:00:22;22.90;99.90
6956;DHT22;50345;51.136;16.886;2022-09-13T13:07:56;23.90;99.90
6956;DHT22;50345;51.136;16.886;2022-09-13T13:10:31;24.40;99.90
6956;DHT22;50345;51.136;16.886;2022-09-13T13:13:20;24.80;99.60
6956;DHT22;50345;51.136;16.886;2022-09-13T13:18:29;25.70;96.90
6956;DHT22;50345;51.136;16.886;2022-09-13T13:23:31;26.60;90.90
6956;DHT22;50345;51.136;16.886;2022-09-13T13:26:11;26.60;89.80
6956;DHT22;50345;51.136;16.886;2022-09-13T13:33:56;25.70;89.50
6956;DHT22;50345;51.136;16.886;2022-09-13T13:36:28;25.30;90.60
6956;DHT22;50345;51.136;16.886;2022-09-13T13:46:42;23.70;95.00
6956;DHT22;50345;51.136;16.886;2022-09-13T13:57:21;23.30;98.40
6956;DHT22;50345;51.136;16.886;2022-09-13T13:59:53;23.10;99.40
6956;DHT22;50345;51.136;16.886;2022-09-13T14:02:25;23.10;99.30
6956;DHT22;50345;51.136;16.886;2022-09-13T14:10:19;23.40;97.70
6956;DHT22;50345;51.136;16.886;2022-09-13T14:16:00;23.80;97.90
6956;DHT22;50345;51.136;16.886;2022-09-13T14:23:23;24.50;96.00
6956;DHT22;50345;51.136;16.886;2022-09-13T14:25:59;24.30;95.70
6956;DHT22;50345;51.136;16.886;2022-09-13T14:28:26;24.10;96.20
6956;DHT22;50345;51.136;16.886;2022-09-13T14:30:58;23.90;96.50
6956;DHT22;50345;51.136;16.886;2022-09-13T14:33:29;23.70;97.10
6956;DHT22;50345;51.136;16.886;2022-09-13T14:36:13;23.50;98.30
6956;DHT22;50345;51.136;16.886;2022-09-13T14:38:47;23.30;99.40
6956;DHT22;50345;51.136;16.886;2022-09-13T14:41:16;23.20;99.90
6956;DHT22;50345;51.136;16.886;2022-09-13T14:43:43;23.20;99.90
6956;DHT22;50345;51.136;16.886;2022-09-13T14:46:24;23.10;99.90
6956;DHT22;50345;51.136;16.886;2022-09-13T14:49:03;23.10;99.90
6956;DHT22;50345;51.136;16.886;2022-09-13T14:52:19;23.10;99.90
6956;DHT22;50345;51.136;16.886;2022-09-13T14:54:35;23.00;99.90
6956;DHT22;50345;51.136;16.886;2022-09-13T14:57:02;22.90;99.90
6956;DHT22;50345;51.136;16.886;2022-09-13T14:59:45;22.90;99.90
6956;DHT22;50345;51.136;16.886;2022-09-13T15:04:49;23.10;99.90
6956;DHT22;50345;51.136;16.886;2022-09-13T15:07:22;23.40;99.90
6956;DHT22;50345;51.136;16.886;2022-09-13T15:09:55;23.70;99.90
6956;DHT22;50345;51.136;16.886;2022-09-13T15:12:23;23.80;99.90
6956;DHT22;50345;51.136;16.886;2022-09-13T15:20:28;23.70;99.90
6956;DHT22;50345;51.136;16.886;2022-09-13T15:22:55;23.50;99.90
6956;DHT22;50345;51.136;16.886;2022-09-13T15:25:26;23.40;99.90
6956;DHT22;50345;51.136;16.886;2022-09-13T15:27:56;23.20;99.90
6956;DHT22;50345;51.136;16.886;2022-09-13T15:30:29;22.90;99.90
6956;DHT22;50345;51.136;16.886;2022-09-13T15:35:40;22.50;99.90
6956;DHT22;50345;51.136;16.886;2022-09-13T15:41:13;22.30;99.90
6956;DHT22;50345;51.136;16.886;2022-09-13T15:43:39;22.30;99.90
6956;DHT22;50345;51.136;16.886;2022-09-13T15:46:05;22.20;99.90
6956;DHT22;50345;51.136;16.886;2022-09-13T15:48:33;22.20;99.90
6956;DHT22;50345;51.136;16.886;2022-09-13T15:51:10;22.20;99.90
6956;DHT22;50345;51.136;16.886;2022-09-13T15:53:38;22.10;99.90
6956;DHT22;50345;51.136;16.886;2022-09-13T15:56:05;22.10;99.90
6956;DHT22;50345;51.136;16.886;2022-09-13T15:58:32;22.00;99.90
6956;DHT22;50345;51.136;16.886;2022-09-13T16:00:58;22.00;99.90
6956;DHT22;50345;51.136;16.886;2022-09-13T16:05:51;22.00;99.90
6956;DHT22;50345;51.136;16.886;2022-09-13T16:08:17;21.80;99.90
6956;DHT22;50345;51.136;16.886;2022-09-13T16:10:43;21.80;99.90
6956;DHT22;50345;51.136;16.886;2022-09-13T16:13:08;21.60;99.90
6956;DHT22;50345;51.136;16.886;2022-09-13T16:15:34;21.50;99.90
6956;DHT22;50345;51.136;16.886;2022-09-13T16:20:26;21.30;99.90
6956;DHT22;50345;51.136;16.886;2022-09-13T16:22:52;21.20;99.90
6956;DHT22;50345;51.136;16.886;2022-09-13T16:25:18;21.10;99.90
6956;DHT22;50345;51.136;16.886;2022-09-13T16:30:15;21.00;99.90
6956;DHT22;50345;51.136;16.886;2022-09-13T16:32:41;21.00;99.90
6956;DHT22;50345;51.136;16.886;2022-09-13T16:35:08;21.00;99.90
6956;DHT22;50345;51.136;16.886;2022-09-13T16:37:34;21.00;99.90
6956;DHT22;50345;51.136;16.886;2022-09-13T16:40:00;21.00;99.90
6956;DHT22;50345;51.136;16.886;2022-09-13T16:42:25;21.00;99.90
6956;DHT22;50345;51.136;16.886;2022-09-13T16:44:51;20.90;99.90
6956;DHT22;50345;51.136;16.886;2022-09-13T16:47:17;20.90;99.90
6956;DHT22;50345;51.136;16.886;2022-09-13T16:49:42;20.70;99.90
6956;DHT22;50345;51.136;16.886;2022-09-13T16:52:08;20.60;99.90
6956;DHT22;50345;51.136;16.886;2022-09-13T16:57:02;20.50;99.90
6956;DHT22;50345;51.136;16.886;2022-09-13T17:01:55;20.30;99.90
6956;DHT22;50345;51.136;16.886;2022-09-13T17:04:22;20.30;99.90
6956;DHT22;50345;51.136;16.886;2022-09-13T17:06:47;20.20;99.90
6956;DHT22;50345;51.136;16.886;2022-09-13T17:09:13;20.10;99.90
6956;DHT22;50345;51.136;16.886;2022-09-13T17:11:41;20.10;99.90
6956;DHT22;50345;51.136;16.886;2022-09-13T17:16:41;20.00;99.90
6956;DHT22;50345;51.136;16.886;2022-09-13T17:19:13;20.00;99.90
6956;DHT22;50345;51.136;16.886;2022-09-13T17:21:39;19.90;99.90
6956;DHT22;50345;51.136;16.886;2022-09-13T17:24:05;19.90;99.90
6956;DHT22;50345;51.136;16.886;2022-09-13T17:26:30;19.90;99.90
6956;DHT22;50345;51.136;16.886;2022-09-13T17:28:56;19.80;99.90
6956;DHT22;50345;51.136;16.886;2022-09-13T17:31:22;19.70;99.90
6956;DHT22;50345;51.136;16.886;2022-09-13T17:36:14;19.70;99.90
6956;DHT22;50345;51.136;16.886;2022-09-13T17:38:40;19.70;99.90
6956;DHT22;50345;51.136;16.886;2022-09-13T17:41:11;19.60;99.90
6956;DHT22;50345;51.136;16.886;2022-09-13T17:43:39;19.60;99.90
6956;DHT22;50345;51.136;16.886;2022-09-13T17:46:06;19.70;99.90
6956;DHT22;50345;51.136;16.886;2022-09-13T17:48:32;19.60;99.90
6956;DHT22;50345;51.136;16.886;2022-09-13T17:51:07;19.50;99.90
6956;DHT22;50345;51.136;16.886;2022-09-13T17:53:37;19.50;99.90
6956;DHT22;50345;51.136;16.886;2022-09-13T17:56:04;19.50;99.90
6956;DHT22;50345;51.136;16.886;2022-09-13T17:58:30;19.50;99.90
6956;DHT22;50345;51.136;16.886;2022-09-13T18:01:04;19.50;99.90
6956;DHT22;50345;51.136;16.886;2022-09-13T18:03:30;19.40;99.90
6956;DHT22;50345;51.136;16.886;2022-09-13T18:05:58;19.40;99.90
6956;DHT22;50345;51.136;16.886;2022-09-13T18:08:24;19.30;99.90
6956;DHT22;50345;51.136;16.886;2022-09-13T18:10:50;19.30;99.90
6956;DHT22;50345;51.136;16.886;2022-09-13T18:13:16;19.30;99.90
6956;DHT22;50345;51.136;16.886;2022-09-13T18:15:42;19.30;99.90
6956;DHT22;50345;51.136;16.886;2022-09-13T18:18:07;19.30;99.90
6956;DHT22;50345;51.136;16.886;2022-09-13T18:20:33;19.20;99.90
6956;DHT22;50345;51.136;16.886;2022-09-13T18:22:59;19.20;99.90
6956;DHT22;50345;51.136;16.886;2022-09-13T18:25:25;19.20;99.90
